Castle Airport Merced US
ICAO: KMER
IATA: MER
Category: Medium
Scheduled Services: No

Elevation: 191 ft
TransAlt. 18000 ft.

Airport Communications:
NORCAL APP/DEP:120.95
AWO 3:124.475
CTAF/UNICOM:123.075

KMER Zoom In..

If you have problems with the map follow the link
https://www.worldairports.se/pages/airport.php?
ICAO=KMER

Runways:

(A) RW 13 length 11802 ft width 150 ft
---- / hdg 126

(B) RW 31 length 11802 ft width 150 ft
ILS 109.50 / hdg 306

Location; KMER
Day. 17 / Time. 19.45 Zulu
* Altimeter: 30.32
* Temperature: 08° c. 46.4°f.
* Wind from: 000° Speed 00 kn.
Dewpoint: 08° c.
Visibility: 1 m.
Clouds: Overcast 200 ft.
Conditions: Fog.

KMER 171945Z 00000KT 1 3/4SM OVC002 08/08 A3032 FG


Wind - Calm.

 
 
jpsmedia worldairports.se 2020   terms of use